createdAt,value
2022-12-02T00:00:29.728Z,1.80
2022-12-02T00:03:02.871Z,2.17
2022-12-02T00:05:36.894Z,1.53
2022-12-02T00:08:26.625Z,1.80
2022-12-02T00:11:02.605Z,2.05
2022-12-02T00:13:45.782Z,2.30
2022-12-02T00:16:26.473Z,2.87
2022-12-02T00:18:59.134Z,2.52
2022-12-02T00:21:32.294Z,2.58
2022-12-02T00:24:06.177Z,1.80
2022-12-02T00:26:38.811Z,1.90
2022-12-02T00:29:11.745Z,3.52
2022-12-02T00:31:44.915Z,2.25
2022-12-02T00:34:18.160Z,2.90
2022-12-02T00:36:51.253Z,1.92
2022-12-02T00:39:24.343Z,1.98
2022-12-02T00:41:57.137Z,1.90
2022-12-02T00:44:47.891Z,1.95
2022-12-02T00:47:20.423Z,1.80
2022-12-02T00:49:53.343Z,2.37
2022-12-02T00:52:25.997Z,1.95
2022-12-02T00:54:58.687Z,1.70
2022-12-02T00:57:31.588Z,1.95
2022-12-02T01:00:05.900Z,1.57
2022-12-02T01:02:39.068Z,2.08
2022-12-02T01:05:12.229Z,1.20
2022-12-02T01:07:44.825Z,1.80
2022-12-02T01:10:17.818Z,2.00
2022-12-02T01:12:53.387Z,1.77
2022-12-02T01:15:26.338Z,1.40
2022-12-02T01:17:58.982Z,1.27
2022-12-02T01:20:32.378Z,1.87
2022-12-02T01:23:05.026Z,2.52
2022-12-02T01:25:38.677Z,2.45
2022-12-02T01:28:11.431Z,2.50
2022-12-02T01:30:44.483Z,2.10
2022-12-02T01:33:17.367Z,2.47
2022-12-02T01:35:49.980Z,1.80
2022-12-02T01:38:22.650Z,1.50
2022-12-02T01:40:56.492Z,2.08
2022-12-02T01:43:29.968Z,1.55
2022-12-02T01:46:03.198Z,2.17
2022-12-02T01:48:38.004Z,2.15
2022-12-02T01:51:10.987Z,2.10
2022-12-02T01:53:43.875Z,1.52
2022-12-02T01:56:17.519Z,1.60
2022-12-02T01:58:50.387Z,1.52
2022-12-02T02:01:31.890Z,1.45
2022-12-02T02:04:05.576Z,1.37
2022-12-02T02:06:42.783Z,1.65
2022-12-02T02:09:16.469Z,1.50
2022-12-02T02:11:50.090Z,1.52
2022-12-02T02:14:22.819Z,1.47
2022-12-02T02:16:55.885Z,1.65
2022-12-02T02:19:29.051Z,1.67
2022-12-02T02:22:07.521Z,1.40
2022-12-02T02:24:40.328Z,1.60
2022-12-02T02:27:13.245Z,1.52
2022-12-02T02:29:47.133Z,1.60
2022-12-02T02:32:20.253Z,1.57
2022-12-02T02:34:53.202Z,1.75
2022-12-02T02:37:27.861Z,1.70
2022-12-02T02:40:00.667Z,1.05
2022-12-02T02:42:35.774Z,2.05
2022-12-02T02:45:09.719Z,1.55
2022-12-02T02:50:14.492Z,2.22
2022-12-02T02:52:47.587Z,1.60
2022-12-02T02:55:27.950Z,1.87
2022-12-02T02:58:21.786Z,1.77
2022-12-02T03:01:06.536Z,2.35
2022-12-02T03:06:15.882Z,1.80
2022-12-02T03:08:50.141Z,2.35
2022-12-02T03:11:23.218Z,1.87
2022-12-02T03:13:56.521Z,1.50
2022-12-02T03:16:29.451Z,1.50
2022-12-02T03:19:02.842Z,1.90
2022-12-02T03:24:08.680Z,2.05
2022-12-02T03:26:41.998Z,1.90
2022-12-02T03:29:15.719Z,1.25
2022-12-02T03:34:20.372Z,1.05
2022-12-02T03:36:53.183Z,1.45
2022-12-02T03:39:26.074Z,1.62
2022-12-02T03:41:59.312Z,1.80
2022-12-02T03:44:32.156Z,1.72
2022-12-02T03:47:05.233Z,1.72
2022-12-02T03:49:38.469Z,1.60
2022-12-02T03:52:13.143Z,1.67
2022-12-02T03:54:51.951Z,2.33
2022-12-02T03:57:21.452Z,1.32
2022-12-02T03:59:54.401Z,1.55
2022-12-02T04:02:27.110Z,1.35
2022-12-02T04:07:33.417Z,1.80
2022-12-02T04:10:07.758Z,1.82
2022-12-02T04:12:40.626Z,1.80
2022-12-02T04:15:14.000Z,2.42
2022-12-02T04:17:46.793Z,2.98
2022-12-02T04:20:19.876Z,2.27
2022-12-02T04:22:52.635Z,2.55
2022-12-02T04:25:25.509Z,3.00
2022-12-02T04:27:58.606Z,2.27
2022-12-02T04:30:31.531Z,1.57
2022-12-02T04:33:04.378Z,1.60
2022-12-02T04:35:37.976Z,1.47
2022-12-02T04:38:12.534Z,1.60
2022-12-02T04:40:45.369Z,2.10
2022-12-02T04:43:18.009Z,2.00
2022-12-02T04:45:51.230Z,3.45
2022-12-02T04:48:23.890Z,2.10
2022-12-02T04:50:56.791Z,2.65
2022-12-02T04:53:29.610Z,2.98
2022-12-02T04:56:02.682Z,2.80
2022-12-02T04:58:35.715Z,2.37
2022-12-02T05:01:08.420Z,2.05
2022-12-02T05:03:41.782Z,1.57
2022-12-02T05:06:14.577Z,1.67
2022-12-02T05:08:47.689Z,1.98
2022-12-02T05:11:20.390Z,1.52
2022-12-02T05:13:53.536Z,2.20
2022-12-02T05:16:26.278Z,1.95
2022-12-02T05:18:58.788Z,1.57
2022-12-02T05:21:31.509Z,2.58
2022-12-02T05:24:04.218Z,1.67
2022-12-02T05:26:37.179Z,1.72
2022-12-02T05:29:09.835Z,2.10
2022-12-02T05:31:42.729Z,2.17
2022-12-02T05:34:15.554Z,1.70
2022-12-02T05:36:48.544Z,1.50
2022-12-02T05:39:21.275Z,1.72
2022-12-02T05:41:55.920Z,1.57
2022-12-02T05:44:33.764Z,2.00
2022-12-02T05:47:08.023Z,2.02
2022-12-02T05:49:41.787Z,3.00
2022-12-02T05:52:23.464Z,3.05
2022-12-02T05:54:59.924Z,3.02
2022-12-02T05:57:34.548Z,2.67
2022-12-02T06:00:23.177Z,2.80
2022-12-02T06:03:02.584Z,2.60
2022-12-02T06:05:44.804Z,3.08
2022-12-02T06:08:24.364Z,3.35
2022-12-02T06:11:06.193Z,1.90
2022-12-02T06:13:40.274Z,2.62
2022-12-02T06:16:18.180Z,2.12
2022-12-02T06:18:51.117Z,2.70
2022-12-02T06:21:25.676Z,2.60
2022-12-02T06:26:31.268Z,1.75
2022-12-02T06:29:06.294Z,2.22
2022-12-02T06:31:43.071Z,1.95
2022-12-02T06:34:40.944Z,4.60
2022-12-02T06:37:21.494Z,2.58
2022-12-02T06:40:26.850Z,3.72
2022-12-02T06:42:39.465Z,5.40
2022-12-02T06:45:30.439Z,6.55
2022-12-02T06:48:16.569Z,3.45
2022-12-02T06:50:50.962Z,3.30
2022-12-02T06:53:41.881Z,4.58
2022-12-02T06:56:24.562Z,3.60
2022-12-02T06:59:06.485Z,3.30
2022-12-02T07:01:42.996Z,3.00
2022-12-02T07:04:49.067Z,2.52
2022-12-02T07:07:26.870Z,4.10
2022-12-02T07:10:07.500Z,4.05
2022-12-02T07:12:45.936Z,5.30
2022-12-02T07:15:35.841Z,3.98
2022-12-02T07:18:18.113Z,4.28
2022-12-02T07:20:51.259Z,3.60
2022-12-02T07:23:28.546Z,3.90
2022-12-02T07:26:03.762Z,3.80
2022-12-02T07:28:44.505Z,4.87
2022-12-02T07:31:28.799Z,5.55
2022-12-02T07:34:01.444Z,3.83
2022-12-02T07:36:34.456Z,4.55
2022-12-02T07:39:07.827Z,4.47
2022-12-02T07:41:42.766Z,3.02
2022-12-02T07:44:15.739Z,4.12
2022-12-02T07:46:48.806Z,2.58
2022-12-02T07:49:21.666Z,3.50
2022-12-02T07:51:55.064Z,3.85
2022-12-02T07:54:28.087Z,4.17
2022-12-02T07:57:01.006Z,3.08
2022-12-02T07:59:34.226Z,2.70
2022-12-02T08:02:06.979Z,3.05
2022-12-02T08:04:40.315Z,3.40
2022-12-02T08:07:13.378Z,4.17
2022-12-02T08:09:46.568Z,5.37
2022-12-02T08:12:19.288Z,5.60
2022-12-02T08:14:52.313Z,5.37
2022-12-02T08:17:25.399Z,4.12
2022-12-02T08:19:58.339Z,3.92
2022-12-02T08:22:30.980Z,4.78
2022-12-02T08:25:04.333Z,5.12
2022-12-02T08:27:44.750Z,5.87
2022-12-02T08:30:15.773Z,4.33
2022-12-02T08:32:49.143Z,8.43
2022-12-02T08:35:21.907Z,5.10
2022-12-02T08:37:54.813Z,4.58
2022-12-02T08:40:27.896Z,3.20
2022-12-02T08:43:00.754Z,3.77
2022-12-02T08:45:33.817Z,3.02
2022-12-02T08:48:06.925Z,4.75
2022-12-02T08:50:40.747Z,4.65
2022-12-02T08:53:13.848Z,3.63
2022-12-02T08:55:46.675Z,4.90
2022-12-02T08:58:19.424Z,4.45
2022-12-02T09:00:52.841Z,5.60
2022-12-02T09:03:25.583Z,4.60
2022-12-02T09:05:58.473Z,3.95
2022-12-02T09:08:31.408Z,5.72
2022-12-02T09:11:04.836Z,2.73
2022-12-02T09:13:37.602Z,3.55
2022-12-02T09:16:10.979Z,3.75
2022-12-02T09:18:44.120Z,3.70
2022-12-02T09:21:17.553Z,3.33
2022-12-02T09:23:51.087Z,4.12
2022-12-02T09:26:23.903Z,3.63
2022-12-02T09:28:57.007Z,10.03
2022-12-02T09:31:29.847Z,5.28
2022-12-02T09:36:37.319Z,4.00
2022-12-02T09:39:10.378Z,3.55
2022-12-02T09:44:16.304Z,4.42
2022-12-02T09:46:49.455Z,4.50
2022-12-02T09:49:22.510Z,3.70
2022-12-02T09:51:59.469Z,5.85
2022-12-02T09:54:33.351Z,3.42
2022-12-02T09:57:13.324Z,4.08
2022-12-02T09:59:46.510Z,3.65
2022-12-02T10:02:30.233Z,2.65
2022-12-02T10:05:06.199Z,3.30
2022-12-02T10:07:39.968Z,3.85
2022-12-02T10:10:17.619Z,2.92
2022-12-02T10:12:50.880Z,4.03
2022-12-02T10:15:27.834Z,3.62
2022-12-02T10:18:04.718Z,4.70
2022-12-02T10:20:37.589Z,3.80
2022-12-02T10:23:18.405Z,4.25
2022-12-02T10:26:14.027Z,3.35
2022-12-02T10:29:00.728Z,2.80
2022-12-02T10:31:34.154Z,3.92
2022-12-02T10:34:08.572Z,3.37
2022-12-02T10:36:44.093Z,2.77
2022-12-02T10:39:38.109Z,3.77
2022-12-02T10:42:17.149Z,3.22
2022-12-02T10:44:53.938Z,2.70
2022-12-02T10:47:28.642Z,5.15
2022-12-02T10:50:02.456Z,5.05
2022-12-02T10:52:45.989Z,4.00
2022-12-02T10:55:21.402Z,3.77
2022-12-02T10:57:55.954Z,4.45
2022-12-02T11:00:29.058Z,6.83
2022-12-02T11:03:04.825Z,3.95
2022-12-02T11:05:38.567Z,3.22
2022-12-02T11:08:30.107Z,3.30
2022-12-02T11:11:30.338Z,5.72
2022-12-02T11:14:07.097Z,4.97
2022-12-02T11:16:53.557Z,4.97
2022-12-02T11:19:41.135Z,2.62
2022-12-02T11:22:53.392Z,2.77
2022-12-02T11:25:49.091Z,3.45
2022-12-02T11:28:32.526Z,3.12
2022-12-02T11:31:19.213Z,3.37
2022-12-02T11:34:02.519Z,4.95
2022-12-02T11:36:36.079Z,3.52
2022-12-02T11:39:12.483Z,4.05
2022-12-02T11:42:01.874Z,3.60
2022-12-02T11:44:35.611Z,9.30
2022-12-02T11:47:10.143Z,5.28
2022-12-02T11:49:44.804Z,4.50
2022-12-02T11:52:24.772Z,5.10
2022-12-02T11:55:34.149Z,3.83
2022-12-02T11:58:21.731Z,4.53
2022-12-02T12:01:17.016Z,3.77
2022-12-02T12:03:52.508Z,5.17
2022-12-02T12:06:29.244Z,8.15
2022-12-02T12:09:03.353Z,6.00
2022-12-02T12:11:37.897Z,4.12
2022-12-02T12:14:19.120Z,4.08
2022-12-02T12:16:52.437Z,3.70
2022-12-02T12:19:27.529Z,5.08
2022-12-02T12:22:00.887Z,3.98
2022-12-02T12:24:36.012Z,4.62
2022-12-02T12:27:13.264Z,4.12
2022-12-02T12:29:45.952Z,7.53
2022-12-02T12:32:18.817Z,7.75
2022-12-02T12:34:51.948Z,6.83
2022-12-02T12:37:25.235Z,9.13
2022-12-02T12:39:58.112Z,10.25
2022-12-02T12:42:30.886Z,8.73
2022-12-02T12:45:03.801Z,5.12
2022-12-02T12:47:36.631Z,4.95
2022-12-02T12:50:10.528Z,6.22
2022-12-02T12:52:43.405Z,6.08
2022-12-02T12:55:16.294Z,6.42
2022-12-02T12:57:50.184Z,4.42
2022-12-02T13:00:23.881Z,4.05
2022-12-02T13:02:57.696Z,7.78
2022-12-02T13:05:30.470Z,7.12
2022-12-02T13:08:05.391Z,8.85
2022-12-02T13:10:38.666Z,6.65
2022-12-02T13:13:11.704Z,7.70
2022-12-02T13:15:44.333Z,7.12
2022-12-02T13:18:17.053Z,8.50
2022-12-02T13:20:50.197Z,10.08
2022-12-02T13:23:23.572Z,7.67
2022-12-02T13:25:56.300Z,5.75
2022-12-02T13:28:29.086Z,8.98
2022-12-02T13:31:01.920Z,8.35
2022-12-02T13:33:35.424Z,7.70
2022-12-02T13:36:09.898Z,9.10
2022-12-02T13:38:42.571Z,14.05
2022-12-02T13:41:15.322Z,8.45
2022-12-02T13:43:48.311Z,7.15
2022-12-02T13:46:22.093Z,8.05
2022-12-02T13:48:55.759Z,7.90
2022-12-02T13:51:28.548Z,5.53
2022-12-02T13:54:01.747Z,7.95
2022-12-02T13:56:34.678Z,7.27
2022-12-02T13:59:07.615Z,6.30
2022-12-02T14:01:41.436Z,9.00
2022-12-02T14:04:14.780Z,9.53
2022-12-02T14:06:47.793Z,10.75
2022-12-02T14:09:21.001Z,13.03
2022-12-02T14:11:53.782Z,11.50
2022-12-02T14:14:26.674Z,12.50
2022-12-02T14:16:59.443Z,13.62
2022-12-02T14:19:32.464Z,18.80
2022-12-02T14:22:05.409Z,17.52
2022-12-02T14:24:38.089Z,13.40
2022-12-02T14:27:10.925Z,9.80
2022-12-02T14:29:44.073Z,8.23
2022-12-02T14:32:17.514Z,8.10
2022-12-02T14:34:50.576Z,8.68
2022-12-02T14:37:23.730Z,8.08
2022-12-02T14:39:56.678Z,10.75
2022-12-02T14:42:29.831Z,10.10
2022-12-02T14:45:02.510Z,9.13
2022-12-02T14:47:36.018Z,9.55
2022-12-02T14:50:09.727Z,9.93
2022-12-02T14:52:43.170Z,10.48
2022-12-02T14:55:17.175Z,9.10
2022-12-02T14:57:50.201Z,7.05
2022-12-02T15:00:23.352Z,8.85
2022-12-02T15:02:56.319Z,9.40
2022-12-02T15:05:29.358Z,8.23
2022-12-02T15:08:02.356Z,7.60
2022-12-02T15:10:40.018Z,6.58
2022-12-02T15:13:10.221Z,7.70
2022-12-02T15:15:46.379Z,6.70
2022-12-02T15:18:18.012Z,7.40
2022-12-02T15:20:50.974Z,8.43
2022-12-02T15:23:25.516Z,10.80
2022-12-02T15:25:58.334Z,9.15
2022-12-02T15:28:31.484Z,8.63
2022-12-02T15:31:04.615Z,8.83
2022-12-02T15:33:37.742Z,8.18
2022-12-02T15:36:10.810Z,7.45
2022-12-02T15:38:44.125Z,9.25
2022-12-02T15:41:17.658Z,8.18
2022-12-02T15:43:53.750Z,7.95
2022-12-02T15:46:25.113Z,9.85
2022-12-02T15:48:58.383Z,7.75
2022-12-02T15:51:31.264Z,6.40
2022-12-02T15:54:03.997Z,9.20
2022-12-02T15:56:37.145Z,6.83
2022-12-02T15:59:09.853Z,6.12
2022-12-02T16:01:43.219Z,8.40
2022-12-02T16:04:16.228Z,9.23
2022-12-02T16:06:49.425Z,11.60
2022-12-02T16:09:22.321Z,10.18
2022-12-02T16:11:55.022Z,13.98
2022-12-02T16:14:27.868Z,19.80
2022-12-02T16:17:00.973Z,23.43
2022-12-02T16:19:36.836Z,11.53
2022-12-02T16:22:10.873Z,4.80
2022-12-02T16:24:44.290Z,5.05
2022-12-02T16:27:17.201Z,6.72
2022-12-02T16:29:50.158Z,6.78
2022-12-02T16:32:23.180Z,6.28
2022-12-02T16:34:56.245Z,7.17
2022-12-02T16:37:29.075Z,5.03
2022-12-02T16:40:04.183Z,6.17
2022-12-02T16:42:37.100Z,9.88
2022-12-02T16:45:11.190Z,10.58
2022-12-02T16:47:44.121Z,10.93
2022-12-02T16:50:18.125Z,8.00
2022-12-02T16:52:51.053Z,6.28
2022-12-02T16:55:23.934Z,4.87
2022-12-02T16:57:57.841Z,5.12
2022-12-02T17:00:30.621Z,5.72
2022-12-02T17:03:04.918Z,6.17
2022-12-02T17:08:10.596Z,6.47
2022-12-02T17:10:44.079Z,4.95
2022-12-02T17:13:17.157Z,5.00
2022-12-02T17:15:50.122Z,7.67
2022-12-02T17:18:24.904Z,6.15
2022-12-02T17:20:57.557Z,6.25
2022-12-02T17:23:31.066Z,8.95
2022-12-02T17:26:03.946Z,7.95
2022-12-02T17:28:37.037Z,9.88
2022-12-02T17:31:10.990Z,5.92
2022-12-02T17:33:43.692Z,8.10
2022-12-02T17:36:16.852Z,5.70
2022-12-02T17:38:56.726Z,3.50
2022-12-02T17:41:27.421Z,7.40
2022-12-02T17:44:00.850Z,5.75
2022-12-02T17:46:33.734Z,4.83
2022-12-02T17:49:07.096Z,4.65
2022-12-02T17:51:39.907Z,5.00
2022-12-02T17:54:12.997Z,4.50
2022-12-02T17:56:45.996Z,4.58
2022-12-02T17:59:18.943Z,5.55
2022-12-02T18:01:53.575Z,8.10
2022-12-02T18:04:27.597Z,9.70
2022-12-02T18:07:04.097Z,14.15
2022-12-02T18:09:35.537Z,15.38
2022-12-02T18:12:09.753Z,9.27
2022-12-02T18:14:42.643Z,7.10
2022-12-02T18:17:15.463Z,6.80
2022-12-02T18:19:48.220Z,6.80
2022-12-02T18:22:21.303Z,6.47
2022-12-02T18:24:54.459Z,7.45
2022-12-02T18:27:28.409Z,6.73
2022-12-02T18:30:01.141Z,6.75
2022-12-02T18:32:34.330Z,5.22
2022-12-02T18:35:10.427Z,5.20
2022-12-02T18:37:43.332Z,4.33
2022-12-02T18:40:19.675Z,5.30
2022-12-02T18:42:52.821Z,5.83
2022-12-02T18:45:25.569Z,5.53
2022-12-02T18:47:58.385Z,6.00
2022-12-02T18:50:32.397Z,5.67
2022-12-02T18:53:05.188Z,10.55
2022-12-02T18:55:37.929Z,11.03
2022-12-02T18:58:10.876Z,11.90
2022-12-02T19:00:43.576Z,7.10
2022-12-02T19:03:16.679Z,6.63
2022-12-02T19:05:49.621Z,7.70
2022-12-02T19:08:22.628Z,6.30
2022-12-02T19:10:55.794Z,6.58
2022-12-02T19:13:28.688Z,7.47
2022-12-02T19:16:01.978Z,5.90
2022-12-02T19:18:36.631Z,5.20
2022-12-02T19:21:09.432Z,7.37
2022-12-02T19:23:44.020Z,7.58
2022-12-02T19:26:16.993Z,5.40
2022-12-02T19:28:51.626Z,12.37
2022-12-02T19:31:24.661Z,5.35
2022-12-02T19:33:57.663Z,5.85
2022-12-02T19:36:30.596Z,6.87
2022-12-02T19:39:03.753Z,6.15
2022-12-02T19:41:37.007Z,7.20
2022-12-02T19:44:10.184Z,7.85
2022-12-02T19:46:43.016Z,4.87
2022-12-02T19:49:15.809Z,5.90
2022-12-02T19:51:48.779Z,5.58
2022-12-02T19:54:21.727Z,6.40
2022-12-02T19:56:55.451Z,5.83
2022-12-02T19:59:28.248Z,8.13
2022-12-02T20:02:01.119Z,8.28
2022-12-02T20:04:41.295Z,7.87
2022-12-02T20:07:09.292Z,7.45
2022-12-02T20:09:42.229Z,7.63
2022-12-02T20:12:16.339Z,8.18
2022-12-02T20:14:50.270Z,7.60
2022-12-02T20:17:23.450Z,8.53
2022-12-02T20:19:56.606Z,6.17
2022-12-02T20:22:29.653Z,7.78
2022-12-02T20:25:02.527Z,6.85
2022-12-02T20:27:36.574Z,7.30
2022-12-02T20:30:10.853Z,5.37
2022-12-02T20:32:43.656Z,5.37
2022-12-02T20:35:16.591Z,6.72
2022-12-02T20:37:49.692Z,9.18
2022-12-02T20:40:22.499Z,9.38
2022-12-02T20:42:55.656Z,6.37
2022-12-02T20:45:28.469Z,4.65
2022-12-02T20:48:01.435Z,4.55
2022-12-02T20:50:34.433Z,4.00
2022-12-02T20:53:07.322Z,4.80
2022-12-02T20:55:40.353Z,4.90
2022-12-02T20:58:14.385Z,4.87
2022-12-02T21:03:20.339Z,7.33
2022-12-02T21:05:53.140Z,6.90
2022-12-02T21:08:25.862Z,8.88
2022-12-02T21:10:58.741Z,5.30
2022-12-02T21:13:32.028Z,5.70
2022-12-02T21:16:04.816Z,6.55
2022-12-02T21:18:38.402Z,5.40
2022-12-02T21:21:11.438Z,5.35
2022-12-02T21:23:44.355Z,6.58
2022-12-02T21:26:17.577Z,6.10
2022-12-02T21:28:50.606Z,5.78
2022-12-02T21:31:24.869Z,5.87
2022-12-02T21:33:57.784Z,5.78
2022-12-02T21:36:30.606Z,6.20
2022-12-02T21:39:03.426Z,6.10
2022-12-02T21:41:36.329Z,5.72
2022-12-02T21:44:09.299Z,5.47
2022-12-02T21:46:43.840Z,6.53
2022-12-02T21:49:17.176Z,6.25
2022-12-02T21:51:50.354Z,6.30
2022-12-02T21:54:23.230Z,5.45
2022-12-02T21:56:56.243Z,6.43
2022-12-02T21:59:29.174Z,6.12
2022-12-02T22:02:02.590Z,5.65
2022-12-02T22:04:35.374Z,5.87
2022-12-02T22:07:25.739Z,6.80
2022-12-02T22:09:58.990Z,8.08
2022-12-02T22:12:31.961Z,7.17
2022-12-02T22:15:06.360Z,7.15
2022-12-02T22:17:40.272Z,6.83
2022-12-02T22:20:15.408Z,7.05
2022-12-02T22:22:48.150Z,6.70
2022-12-02T22:25:21.028Z,6.28
2022-12-02T22:27:54.018Z,5.97
2022-12-02T22:30:26.814Z,7.67
2022-12-02T22:33:02.876Z,7.20
2022-12-02T22:35:35.990Z,7.62
2022-12-02T22:38:08.938Z,8.10
2022-12-02T22:40:41.679Z,9.30
2022-12-02T22:43:14.241Z,7.22
2022-12-02T22:45:47.009Z,7.10
2022-12-02T22:48:19.660Z,6.78
2022-12-02T22:50:52.286Z,7.62
2022-12-02T22:53:25.067Z,7.53
2022-12-02T22:55:57.890Z,7.55
2022-12-02T22:58:31.187Z,7.75
2022-12-02T23:01:04.231Z,7.20
2022-12-02T23:03:37.298Z,7.33
2022-12-02T23:06:10.129Z,6.70
2022-12-02T23:08:44.480Z,8.08
2022-12-02T23:11:17.423Z,8.28
2022-12-02T23:13:50.201Z,7.62
2022-12-02T23:16:23.772Z,7.58
2022-12-02T23:18:56.433Z,7.75
2022-12-02T23:21:29.408Z,6.08
2022-12-02T23:24:02.601Z,6.95
2022-12-02T23:26:36.128Z,7.17
2022-12-02T23:29:08.748Z,6.15
2022-12-02T23:31:41.500Z,7.65
2022-12-02T23:34:15.682Z,7.72
2022-12-02T23:36:48.330Z,7.28
2022-12-02T23:39:21.307Z,7.67
2022-12-02T23:41:54.092Z,6.92
2022-12-02T23:44:28.561Z,7.75
2022-12-02T23:47:01.702Z,8.63
2022-12-02T23:49:34.529Z,9.75
2022-12-02T23:52:07.468Z,11.73
2022-12-02T23:54:40.760Z,8.65
2022-12-02T23:57:14.253Z,8.28
2022-12-02T23:59:47.037Z,7.97
